createdAt,value
2023-01-29T00:01:19.073Z,100.00
2023-01-29T00:06:20.445Z,100.00
2023-01-29T00:11:21.786Z,100.00
2023-01-29T00:16:23.122Z,100.00
2023-01-29T00:21:24.423Z,100.00
2023-01-29T00:26:26.506Z,100.00
2023-01-29T00:31:27.986Z,100.00
2023-01-29T00:36:29.520Z,100.00
2023-01-29T00:41:50.982Z,100.00
2023-01-29T00:46:52.446Z,100.00
2023-01-29T00:52:12.379Z,100.00
2023-01-29T00:57:13.713Z,100.00
2023-01-29T01:02:33.802Z,100.00
2023-01-29T01:07:35.275Z,100.00
2023-01-29T01:12:36.622Z,100.00
2023-01-29T01:17:38.228Z,100.00
2023-01-29T01:22:39.659Z,100.00
2023-01-29T01:27:41.493Z,100.00
2023-01-29T01:32:42.963Z,100.00
2023-01-29T01:37:44.288Z,100.00
2023-01-29T01:42:49.728Z,100.00
2023-01-29T01:47:52.482Z,100.00
2023-01-29T01:52:57.266Z,100.00
2023-01-29T01:58:06.434Z,100.00
2023-01-29T02:03:27.821Z,100.00
2023-01-29T02:08:54.187Z,100.00
2023-01-29T02:13:55.487Z,100.00
2023-01-29T02:18:57.056Z,100.00
2023-01-29T02:23:58.479Z,100.00
2023-01-29T02:29:22.459Z,100.00
2023-01-29T02:34:55.074Z,100.00
2023-01-29T02:40:09.830Z,100.00
2023-01-29T02:45:18.131Z,100.00
2023-01-29T02:50:25.848Z,100.00
2023-01-29T02:55:34.286Z,100.00
2023-01-29T03:00:38.872Z,100.00
2023-01-29T03:05:45.717Z,100.00
2023-01-29T03:10:52.805Z,100.00
2023-01-29T03:16:01.573Z,100.00
2023-01-29T03:21:28.784Z,100.00
2023-01-29T03:26:48.534Z,100.00
2023-01-29T03:32:05.417Z,100.00
2023-01-29T03:37:10.830Z,100.00
2023-01-29T03:42:18.334Z,100.00
2023-01-29T03:47:19.635Z,100.00
2023-01-29T03:52:40.029Z,100.00
2023-01-29T03:57:45.530Z,100.00
2023-01-29T04:02:46.805Z,100.00
2023-01-29T04:07:52.182Z,100.00
2023-01-29T04:12:56.817Z,100.00
2023-01-29T04:17:58.307Z,100.00
2023-01-29T04:22:59.629Z,100.00
2023-01-29T04:28:01.627Z,100.00
2023-01-29T04:33:09.014Z,100.00
2023-01-29T04:38:25.647Z,100.00
2023-01-29T04:43:30.372Z,100.00
2023-01-29T04:48:50.017Z,100.00
2023-01-29T04:54:06.144Z,100.00
2023-01-29T04:59:11.483Z,100.00
2023-01-29T05:04:14.121Z,100.00
2023-01-29T05:09:17.293Z,100.00
2023-01-29T05:14:19.736Z,100.00
2023-01-29T05:19:21.031Z,100.00
2023-01-29T05:24:23.363Z,100.00
2023-01-29T05:29:24.776Z,100.00
2023-01-29T05:34:26.277Z,100.00
2023-01-29T05:39:27.629Z,100.00
2023-01-29T05:44:28.936Z,100.00
2023-01-29T05:49:30.246Z,100.00
2023-01-29T05:54:31.549Z,100.00
2023-01-29T05:59:32.903Z,100.00
2023-01-29T06:04:34.248Z,100.00
2023-01-29T06:09:35.552Z,100.00
2023-01-29T06:14:36.886Z,100.00
2023-01-29T06:19:38.261Z,100.00
2023-01-29T06:24:39.611Z,100.00
2023-01-29T06:29:41.092Z,100.00
2023-01-29T06:34:42.475Z,100.00
2023-01-29T06:39:44.121Z,100.00
2023-01-29T06:44:45.433Z,100.00
2023-01-29T06:49:46.743Z,100.00
2023-01-29T06:54:48.067Z,100.00
2023-01-29T06:59:49.475Z,100.00
2023-01-29T07:04:50.780Z,100.00
2023-01-29T07:09:52.088Z,100.00
2023-01-29T07:14:53.402Z,100.00
2023-01-29T07:19:54.714Z,100.00
2023-01-29T07:24:56.037Z,100.00
2023-01-29T07:29:57.347Z,100.00
2023-01-29T07:34:58.666Z,100.00
2023-01-29T07:39:59.980Z,100.00
2023-01-29T07:45:01.353Z,100.00
2023-01-29T07:50:03.085Z,100.00
2023-01-29T07:55:04.542Z,100.00
2023-01-29T08:00:06.117Z,100.00
2023-01-29T08:05:07.800Z,100.00
2023-01-29T08:10:09.703Z,100.00
2023-01-29T08:15:11.263Z,100.00
2023-01-29T08:20:12.592Z,97.27
2023-01-29T08:25:14.286Z,89.17
2023-01-29T08:30:16.942Z,87.33
2023-01-29T08:35:19.128Z,89.99
2023-01-29T08:40:20.813Z,94.08
2023-01-29T08:45:22.121Z,91.41
2023-01-29T08:50:23.424Z,87.39
2023-01-29T08:55:25.079Z,87.53
2023-01-29T09:00:26.432Z,85.04
2023-01-29T09:05:28.178Z,81.23
2023-01-29T09:10:29.505Z,80.05
2023-01-29T09:15:31.246Z,74.16
2023-01-29T09:20:32.905Z,76.42
2023-01-29T09:25:34.601Z,80.83
2023-01-29T09:30:37.785Z,82.31
2023-01-29T09:35:43.238Z,82.49
2023-01-29T09:40:58.533Z,84.95
2023-01-29T09:46:21.277Z,79.60
2023-01-29T09:51:29.143Z,73.75
2023-01-29T09:56:30.588Z,68.88
2023-01-29T10:01:36.963Z,61.98
2023-01-29T10:06:38.394Z,63.73
2023-01-29T10:11:58.399Z,60.79
2023-01-29T10:17:10.165Z,58.09
2023-01-29T10:22:29.709Z,56.34
2023-01-29T10:27:38.433Z,59.65
2023-01-29T10:32:39.734Z,57.79
2023-01-29T10:37:42.085Z,55.30
2023-01-29T10:42:47.410Z,57.15
2023-01-29T10:47:54.561Z,61.05
2023-01-29T10:52:57.288Z,61.21
2023-01-29T10:58:22.696Z,59.83
2023-01-29T11:03:28.237Z,58.12
2023-01-29T11:08:39.305Z,57.07
2023-01-29T11:13:55.667Z,56.13
2023-01-29T11:18:58.551Z,55.21
2023-01-29T11:24:16.960Z,56.10
2023-01-29T11:29:37.106Z,55.90
2023-01-29T11:34:56.210Z,58.81
2023-01-29T11:39:57.546Z,57.14
2023-01-29T11:44:59.436Z,55.21
2023-01-29T11:50:01.701Z,56.21
2023-01-29T11:55:05.300Z,57.94
2023-01-29T12:00:07.932Z,59.23
2023-01-29T12:05:19.610Z,56.15
2023-01-29T12:10:36.158Z,58.27
2023-01-29T12:15:38.464Z,58.17
2023-01-29T12:20:46.083Z,57.62
2023-01-29T12:25:56.540Z,57.82
2023-01-29T12:31:00.780Z,55.39
2023-01-29T12:36:14.292Z,56.78
2023-01-29T12:41:22.084Z,57.11
2023-01-29T12:46:28.085Z,56.18
2023-01-29T12:51:38.657Z,53.82
2023-01-29T12:56:43.652Z,54.84
2023-01-29T13:01:56.603Z,53.31
2023-01-29T13:07:11.296Z,55.55
2023-01-29T13:12:15.860Z,56.96
2023-01-29T13:17:40.294Z,56.17
2023-01-29T13:22:43.146Z,57.52
2023-01-29T13:27:47.551Z,58.39
2023-01-29T13:32:52.393Z,58.96
2023-01-29T13:37:54.847Z,60.86
2023-01-29T13:42:59.884Z,61.84
2023-01-29T13:48:20.017Z,64.97
2023-01-29T13:53:25.689Z,68.10
2023-01-29T13:58:33.043Z,69.59
2023-01-29T14:04:02.257Z,70.60
2023-01-29T14:09:03.650Z,70.70
2023-01-29T14:14:24.980Z,70.58
2023-01-29T14:19:26.301Z,70.19
2023-01-29T14:24:30.508Z,69.56
2023-01-29T14:29:38.040Z,68.23
2023-01-29T14:34:47.821Z,68.60
2023-01-29T14:39:55.038Z,69.65
2023-01-29T14:45:07.735Z,70.10
2023-01-29T14:50:27.676Z,70.62
2023-01-29T14:55:37.615Z,71.59
2023-01-29T15:00:40.758Z,72.37
2023-01-29T15:05:42.193Z,73.59
2023-01-29T15:11:10.919Z,74.05
2023-01-29T15:16:25.396Z,73.56
2023-01-29T15:21:26.721Z,74.28
2023-01-29T15:26:28.130Z,74.02
2023-01-29T15:31:29.733Z,73.30
2023-01-29T15:36:31.806Z,74.75
2023-01-29T15:41:33.112Z,75.89
2023-01-29T15:46:36.873Z,75.48
2023-01-29T15:51:38.604Z,75.18
2023-01-29T15:56:43.256Z,76.21
2023-01-29T16:01:44.850Z,80.99
2023-01-29T16:06:47.858Z,82.60
2023-01-29T16:11:50.407Z,83.69
2023-01-29T16:16:52.540Z,83.67
2023-01-29T16:21:59.905Z,83.59
2023-01-29T16:27:07.147Z,84.85
2023-01-29T16:32:09.005Z,84.10
2023-01-29T16:37:19.126Z,82.77
2023-01-29T16:42:27.830Z,83.60
2023-01-29T16:47:32.264Z,83.74
2023-01-29T16:52:34.361Z,84.30
2023-01-29T16:57:35.676Z,84.20
2023-01-29T17:02:38.456Z,83.79
2023-01-29T17:07:44.551Z,84.03
2023-01-29T17:12:56.807Z,85.56
2023-01-29T17:17:58.112Z,85.15
2023-01-29T17:22:59.449Z,85.20
2023-01-29T17:28:01.609Z,86.00
2023-01-29T17:33:10.883Z,86.18
2023-01-29T17:38:24.254Z,84.38
2023-01-29T17:43:27.144Z,85.77
2023-01-29T17:48:29.759Z,85.70
2023-01-29T17:53:44.855Z,85.44
2023-01-29T17:58:47.082Z,84.84
2023-01-29T18:03:48.532Z,85.25
2023-01-29T18:08:49.928Z,86.37
2023-01-29T18:13:51.472Z,85.45
2023-01-29T18:18:53.491Z,83.87
2023-01-29T18:23:55.523Z,82.49
2023-01-29T18:28:56.958Z,82.17
2023-01-29T18:33:59.156Z,82.09
2023-01-29T18:39:00.523Z,84.30
2023-01-29T18:44:01.912Z,84.35
2023-01-29T18:49:03.340Z,82.77
2023-01-29T18:54:04.825Z,82.00
2023-01-29T18:59:06.740Z,82.50
2023-01-29T19:04:08.421Z,82.32
2023-01-29T19:09:09.742Z,81.68
2023-01-29T19:14:11.249Z,81.97
2023-01-29T19:19:12.695Z,81.47
2023-01-29T19:24:14.703Z,82.37
2023-01-29T19:29:16.691Z,82.17
2023-01-29T19:34:19.311Z,82.93
2023-01-29T19:39:20.635Z,83.06
2023-01-29T19:44:21.941Z,83.59
2023-01-29T19:49:23.248Z,83.56
2023-01-29T19:54:27.681Z,84.07
2023-01-29T19:59:29.840Z,84.31
2023-01-29T20:04:31.178Z,84.95
2023-01-29T20:09:33.478Z,85.46
2023-01-29T20:14:35.057Z,85.89
2023-01-29T20:19:36.378Z,87.15
2023-01-29T20:24:42.862Z,87.83
2023-01-29T20:29:45.685Z,87.01
2023-01-29T20:34:52.280Z,86.95
2023-01-29T20:39:53.814Z,86.86
2023-01-29T20:44:55.131Z,86.69
2023-01-29T20:49:56.804Z,87.14
2023-01-29T20:55:00.298Z,87.48
2023-01-29T21:00:02.451Z,88.44
2023-01-29T21:05:04.049Z,88.64
2023-01-29T21:10:05.763Z,89.61
2023-01-29T21:15:07.414Z,90.15
2023-01-29T21:20:10.203Z,90.31
2023-01-29T21:25:11.947Z,90.49
2023-01-29T21:30:13.410Z,90.77
2023-01-29T21:35:15.379Z,91.05
2023-01-29T21:40:17.336Z,91.76
2023-01-29T21:45:19.170Z,92.52
2023-01-29T21:50:20.642Z,94.00
2023-01-29T21:55:22.166Z,93.72
2023-01-29T22:00:23.578Z,93.44
2023-01-29T22:05:26.490Z,93.91
2023-01-29T22:10:28.606Z,93.57
2023-01-29T22:15:30.098Z,92.68
2023-01-29T22:20:31.644Z,92.05
2023-01-29T22:25:34.070Z,93.53
2023-01-29T22:30:35.561Z,94.87
2023-01-29T22:35:37.077Z,95.20
2023-01-29T22:40:38.431Z,94.61
2023-01-29T22:45:39.732Z,95.48
2023-01-29T22:50:41.298Z,95.75
2023-01-29T22:55:42.608Z,96.47
2023-01-29T23:00:43.976Z,96.36
2023-01-29T23:05:45.290Z,96.72
2023-01-29T23:10:46.724Z,97.68
2023-01-29T23:15:57.327Z,97.56
2023-01-29T23:20:58.765Z,98.05
2023-01-29T23:26:19.726Z,97.60
2023-01-29T23:31:21.140Z,97.21
2023-01-29T23:36:22.513Z,98.96
2023-01-29T23:41:23.822Z,98.27
2023-01-29T23:46:26.976Z,97.31
2023-01-29T23:51:28.400Z,97.60
2023-01-29T23:56:29.785Z,97.01
